sensor_id;sensor_type;location;lat;lon;timestamp;temperature;humidity
69595;DHT22;56800;52.142;5.364;2022-10-16T00:01:21;13.90;74.70
69595;DHT22;56800;52.142;5.364;2022-10-16T00:03:48;13.90;74.80
69595;DHT22;56800;52.142;5.364;2022-10-16T00:06:16;13.90;74.70
69595;DHT22;56800;52.142;5.364;2022-10-16T00:08:44;13.90;74.80
69595;DHT22;56800;52.142;5.364;2022-10-16T00:11:17;13.90;74.80
69595;DHT22;56800;52.142;5.364;2022-10-16T00:13:45;13.80;74.70
69595;DHT22;56800;52.142;5.364;2022-10-16T00:16:13;13.80;74.60
69595;DHT22;56800;52.142;5.364;2022-10-16T00:18:40;13.80;74.70
69595;DHT22;56800;52.142;5.364;2022-10-16T00:21:13;13.80;74.70
69595;DHT22;56800;52.142;5.364;2022-10-16T00:23:41;13.80;74.70
69595;DHT22;56800;52.142;5.364;2022-10-16T00:26:10;13.90;74.70
69595;DHT22;56800;52.142;5.364;2022-10-16T00:28:38;13.80;74.70
69595;DHT22;56800;52.142;5.364;2022-10-16T00:31:10;13.80;74.70
69595;DHT22;56800;52.142;5.364;2022-10-16T00:33:38;13.80;75.50
69595;DHT22;56800;52.142;5.364;2022-10-16T00:36:06;13.80;74.70
69595;DHT22;56800;52.142;5.364;2022-10-16T00:38:34;13.80;74.80
69595;DHT22;56800;52.142;5.364;2022-10-16T00:41:01;13.80;74.80
69595;DHT22;56800;52.142;5.364;2022-10-16T00:43:43;13.80;75.60
69595;DHT22;56800;52.142;5.364;2022-10-16T00:46:28;13.80;74.90
69595;DHT22;56800;52.142;5.364;2022-10-16T00:49:01;13.80;74.90
69595;DHT22;56800;52.142;5.364;2022-10-16T00:51:37;13.80;74.90
69595;DHT22;56800;52.142;5.364;2022-10-16T00:54:08;13.80;75.00
69595;DHT22;56800;52.142;5.364;2022-10-16T00:56:35;13.80;75.00
69595;DHT22;56800;52.142;5.364;2022-10-16T00:59:06;13.80;75.00
69595;DHT22;56800;52.142;5.364;2022-10-16T01:01:34;13.80;75.00
69595;DHT22;56800;52.142;5.364;2022-10-16T01:04:01;13.80;75.10
69595;DHT22;56800;52.142;5.364;2022-10-16T01:06:46;13.80;75.20
69595;DHT22;56800;52.142;5.364;2022-10-16T01:09:44;13.80;75.30
69595;DHT22;56800;52.142;5.364;2022-10-16T01:12:42;13.90;75.40
69595;DHT22;56800;52.142;5.364;2022-10-16T01:18:00;13.80;75.40
69595;DHT22;56800;52.142;5.364;2022-10-16T01:20:32;13.90;75.50
69595;DHT22;56800;52.142;5.364;2022-10-16T01:31:44;13.90;75.60
69595;DHT22;56800;52.142;5.364;2022-10-16T01:34:16;13.90;75.60
69595;DHT22;56800;52.142;5.364;2022-10-16T01:36:52;13.90;75.60
69595;DHT22;56800;52.142;5.364;2022-10-16T01:39:22;14.00;75.70
69595;DHT22;56800;52.142;5.364;2022-10-16T01:41:55;14.00;75.70
69595;DHT22;56800;52.142;5.364;2022-10-16T01:44:28;14.00;75.70
69595;DHT22;56800;52.142;5.364;2022-10-16T01:46:56;14.00;75.80
69595;DHT22;56800;52.142;5.364;2022-10-16T01:49:26;14.00;75.80
69595;DHT22;56800;52.142;5.364;2022-10-16T01:51:56;14.00;75.80
69595;DHT22;56800;52.142;5.364;2022-10-16T01:54:27;14.00;75.80
69595;DHT22;56800;52.142;5.364;2022-10-16T01:56:55;14.00;75.90
69595;DHT22;56800;52.142;5.364;2022-10-16T01:59:24;14.00;76.00
69595;DHT22;56800;52.142;5.364;2022-10-16T02:01:59;14.00;76.00
69595;DHT22;56800;52.142;5.364;2022-10-16T02:04:37;14.10;76.00
69595;DHT22;56800;52.142;5.364;2022-10-16T02:07:05;14.10;76.10
69595;DHT22;56800;52.142;5.364;2022-10-16T02:09:34;14.10;76.10
69595;DHT22;56800;52.142;5.364;2022-10-16T02:12:06;14.10;76.20
69595;DHT22;56800;52.142;5.364;2022-10-16T02:14:37;14.10;76.20
69595;DHT22;56800;52.142;5.364;2022-10-16T02:17:13;14.00;76.20
69595;DHT22;56800;52.142;5.364;2022-10-16T02:19:41;14.00;77.00
69595;DHT22;56800;52.142;5.364;2022-10-16T02:22:12;14.10;76.30
69595;DHT22;56800;52.142;5.364;2022-10-16T02:24:55;14.10;76.30
69595;DHT22;56800;52.142;5.364;2022-10-16T02:30:06;14.10;76.40
69595;DHT22;56800;52.142;5.364;2022-10-16T02:32:36;14.00;76.20
69595;DHT22;56800;52.142;5.364;2022-10-16T02:35:04;14.00;76.30
69595;DHT22;56800;52.142;5.364;2022-10-16T02:37:32;14.00;76.30
69595;DHT22;56800;52.142;5.364;2022-10-16T02:39:59;14.00;76.40
69595;DHT22;56800;52.142;5.364;2022-10-16T02:42:34;14.00;76.40
69595;DHT22;56800;52.142;5.364;2022-10-16T02:45:02;14.00;76.40
69595;DHT22;56800;52.142;5.364;2022-10-16T02:47:28;14.00;76.50
69595;DHT22;56800;52.142;5.364;2022-10-16T02:49:55;14.00;76.50
69595;DHT22;56800;52.142;5.364;2022-10-16T02:52:22;14.00;76.60
69595;DHT22;56800;52.142;5.364;2022-10-16T02:54:49;14.00;76.60
69595;DHT22;56800;52.142;5.364;2022-10-16T02:57:16;14.00;76.70
69595;DHT22;56800;52.142;5.364;2022-10-16T02:59:42;13.90;76.60
69595;DHT22;56800;52.142;5.364;2022-10-16T03:02:09;14.00;76.70
69595;DHT22;56800;52.142;5.364;2022-10-16T03:04:36;13.90;76.80
69595;DHT22;56800;52.142;5.364;2022-10-16T03:07:03;13.90;76.80
69595;DHT22;56800;52.142;5.364;2022-10-16T03:09:30;13.90;76.90
69595;DHT22;56800;52.142;5.364;2022-10-16T03:11:56;13.90;77.00
69595;DHT22;56800;52.142;5.364;2022-10-16T03:14:23;13.90;77.00
69595;DHT22;56800;52.142;5.364;2022-10-16T03:16:50;13.90;77.00
69595;DHT22;56800;52.142;5.364;2022-10-16T03:19:17;13.90;77.00
69595;DHT22;56800;52.142;5.364;2022-10-16T03:21:44;13.90;77.00
69595;DHT22;56800;52.142;5.364;2022-10-16T03:24:11;13.90;77.10
69595;DHT22;56800;52.142;5.364;2022-10-16T03:26:37;14.00;77.20
69595;DHT22;56800;52.142;5.364;2022-10-16T03:29:04;13.90;77.10
69595;DHT22;56800;52.142;5.364;2022-10-16T03:31:31;13.90;77.20
69595;DHT22;56800;52.142;5.364;2022-10-16T03:33:58;13.90;77.20
69595;DHT22;56800;52.142;5.364;2022-10-16T03:36:25;13.80;77.30
69595;DHT22;56800;52.142;5.364;2022-10-16T03:38:51;13.80;77.30
69595;DHT22;56800;52.142;5.364;2022-10-16T03:41:18;13.90;77.40
69595;DHT22;56800;52.142;5.364;2022-10-16T03:43:44;13.80;77.40
69595;DHT22;56800;52.142;5.364;2022-10-16T03:46:11;13.90;77.50
69595;DHT22;56800;52.142;5.364;2022-10-16T03:48:38;13.80;77.40
69595;DHT22;56800;52.142;5.364;2022-10-16T03:51:06;13.80;77.40
69595;DHT22;56800;52.142;5.364;2022-10-16T03:53:32;13.80;77.40
69595;DHT22;56800;52.142;5.364;2022-10-16T03:55:59;13.80;77.50
69595;DHT22;56800;52.142;5.364;2022-10-16T03:58:26;13.70;77.50
69595;DHT22;56800;52.142;5.364;2022-10-16T04:00:53;13.80;77.60
69595;DHT22;56800;52.142;5.364;2022-10-16T04:03:19;13.80;77.90
69595;DHT22;56800;52.142;5.364;2022-10-16T04:05:47;13.80;77.70
69595;DHT22;56800;52.142;5.364;2022-10-16T04:08:14;13.80;77.70
69595;DHT22;56800;52.142;5.364;2022-10-16T04:10:42;13.70;77.70
69595;DHT22;56800;52.142;5.364;2022-10-16T04:13:09;13.70;78.50
69595;DHT22;56800;52.142;5.364;2022-10-16T04:15:36;13.80;77.80
69595;DHT22;56800;52.142;5.364;2022-10-16T04:18:04;13.70;77.70
69595;DHT22;56800;52.142;5.364;2022-10-16T04:20:31;13.70;77.80
69595;DHT22;56800;52.142;5.364;2022-10-16T04:22:57;13.70;77.80
69595;DHT22;56800;52.142;5.364;2022-10-16T04:25:24;13.70;77.90
69595;DHT22;56800;52.142;5.364;2022-10-16T04:27:53;13.70;77.90
69595;DHT22;56800;52.142;5.364;2022-10-16T04:30:20;13.70;77.90
69595;DHT22;56800;52.142;5.364;2022-10-16T04:32:50;13.70;77.90
69595;DHT22;56800;52.142;5.364;2022-10-16T04:35:19;13.60;78.00
69595;DHT22;56800;52.142;5.364;2022-10-16T04:37:46;13.60;78.00
69595;DHT22;56800;52.142;5.364;2022-10-16T04:40:13;13.60;78.10
69595;DHT22;56800;52.142;5.364;2022-10-16T04:42:40;13.60;78.10
69595;DHT22;56800;52.142;5.364;2022-10-16T04:45:07;13.60;78.10
69595;DHT22;56800;52.142;5.364;2022-10-16T04:47:40;13.60;78.20
69595;DHT22;56800;52.142;5.364;2022-10-16T04:50:07;13.60;78.20
69595;DHT22;56800;52.142;5.364;2022-10-16T04:52:33;13.60;78.20
69595;DHT22;56800;52.142;5.364;2022-10-16T04:55:05;13.60;78.30
69595;DHT22;56800;52.142;5.364;2022-10-16T04:57:32;13.60;78.30
69595;DHT22;56800;52.142;5.364;2022-10-16T04:59:59;13.60;78.30
69595;DHT22;56800;52.142;5.364;2022-10-16T05:02:26;13.60;78.30
69595;DHT22;56800;52.142;5.364;2022-10-16T05:04:53;13.60;78.40
69595;DHT22;56800;52.142;5.364;2022-10-16T05:07:19;13.60;78.30
69595;DHT22;56800;52.142;5.364;2022-10-16T05:09:46;13.60;78.30
69595;DHT22;56800;52.142;5.364;2022-10-16T05:12:13;13.50;78.30
69595;DHT22;56800;52.142;5.364;2022-10-16T05:14:39;13.50;78.30
69595;DHT22;56800;52.142;5.364;2022-10-16T05:17:06;13.50;78.40
69595;DHT22;56800;52.142;5.364;2022-10-16T05:19:32;13.50;78.50
69595;DHT22;56800;52.142;5.364;2022-10-16T05:21:59;13.50;78.50
69595;DHT22;56800;52.142;5.364;2022-10-16T05:24:26;13.50;78.50
69595;DHT22;56800;52.142;5.364;2022-10-16T05:26:52;13.50;78.60
69595;DHT22;56800;52.142;5.364;2022-10-16T05:29:20;13.50;79.50
69595;DHT22;56800;52.142;5.364;2022-10-16T05:31:46;13.50;78.60
69595;DHT22;56800;52.142;5.364;2022-10-16T05:34:13;13.40;78.60
69595;DHT22;56800;52.142;5.364;2022-10-16T05:36:39;13.40;78.60
69595;DHT22;56800;52.142;5.364;2022-10-16T05:39:06;13.40;78.70
69595;DHT22;56800;52.142;5.364;2022-10-16T05:41:33;13.40;78.70
69595;DHT22;56800;52.142;5.364;2022-10-16T05:43:59;13.40;78.80
69595;DHT22;56800;52.142;5.364;2022-10-16T05:46:26;13.40;78.90
69595;DHT22;56800;52.142;5.364;2022-10-16T05:48:52;13.40;79.00
69595;DHT22;56800;52.142;5.364;2022-10-16T05:51:19;13.40;79.00
69595;DHT22;56800;52.142;5.364;2022-10-16T05:53:46;13.40;79.00
69595;DHT22;56800;52.142;5.364;2022-10-16T05:56:13;13.40;79.10
69595;DHT22;56800;52.142;5.364;2022-10-16T05:58:40;13.40;79.10
69595;DHT22;56800;52.142;5.364;2022-10-16T06:01:17;13.40;79.10
69595;DHT22;56800;52.142;5.364;2022-10-16T06:03:44;13.40;79.10
69595;DHT22;56800;52.142;5.364;2022-10-16T06:06:20;13.40;79.30
69595;DHT22;56800;52.142;5.364;2022-10-16T06:08:47;13.40;79.20
69595;DHT22;56800;52.142;5.364;2022-10-16T06:11:19;13.40;79.20
69595;DHT22;56800;52.142;5.364;2022-10-16T06:13:57;13.40;79.20
69595;DHT22;56800;52.142;5.364;2022-10-16T06:16:25;13.40;79.20
69595;DHT22;56800;52.142;5.364;2022-10-16T06:18:53;13.40;79.20
69595;DHT22;56800;52.142;5.364;2022-10-16T06:21:23;13.40;79.20
69595;DHT22;56800;52.142;5.364;2022-10-16T06:23:54;13.50;79.30
69595;DHT22;56800;52.142;5.364;2022-10-16T06:26:24;13.50;79.40
69595;DHT22;56800;52.142;5.364;2022-10-16T06:28:51;13.40;79.30
69595;DHT22;56800;52.142;5.364;2022-10-16T06:31:18;13.50;79.40
69595;DHT22;56800;52.142;5.364;2022-10-16T06:33:44;13.50;79.40
69595;DHT22;56800;52.142;5.364;2022-10-16T06:36:15;13.50;79.40
69595;DHT22;56800;52.142;5.364;2022-10-16T06:38:42;13.50;79.40
69595;DHT22;56800;52.142;5.364;2022-10-16T06:41:17;13.50;79.50
69595;DHT22;56800;52.142;5.364;2022-10-16T06:43:44;13.50;79.50
69595;DHT22;56800;52.142;5.364;2022-10-16T06:46:13;13.50;79.50
69595;DHT22;56800;52.142;5.364;2022-10-16T06:48:40;13.50;79.50
69595;DHT22;56800;52.142;5.364;2022-10-16T06:51:13;13.50;79.60
69595;DHT22;56800;52.142;5.364;2022-10-16T06:53:42;13.50;79.60
69595;DHT22;56800;52.142;5.364;2022-10-16T06:56:28;13.50;79.80
69595;DHT22;56800;52.142;5.364;2022-10-16T06:58:57;13.50;79.80
69595;DHT22;56800;52.142;5.364;2022-10-16T07:01:24;13.50;79.80
69595;DHT22;56800;52.142;5.364;2022-10-16T07:03:51;13.50;79.90
69595;DHT22;56800;52.142;5.364;2022-10-16T07:06:21;13.50;80.00
69595;DHT22;56800;52.142;5.364;2022-10-16T07:08:48;13.50;79.90
69595;DHT22;56800;52.142;5.364;2022-10-16T07:11:17;13.50;80.00
69595;DHT22;56800;52.142;5.364;2022-10-16T07:13:45;13.50;80.00
69595;DHT22;56800;52.142;5.364;2022-10-16T07:16:21;13.50;80.00
69595;DHT22;56800;52.142;5.364;2022-10-16T07:18:48;13.50;80.10
69595;DHT22;56800;52.142;5.364;2022-10-16T07:21:17;13.60;80.10
69595;DHT22;56800;52.142;5.364;2022-10-16T07:23:44;13.60;80.10
69595;DHT22;56800;52.142;5.364;2022-10-16T07:26:11;13.60;80.00
69595;DHT22;56800;52.142;5.364;2022-10-16T07:28:38;13.70;80.10
69595;DHT22;56800;52.142;5.364;2022-10-16T07:31:09;13.70;79.90
69595;DHT22;56800;52.142;5.364;2022-10-16T07:33:38;13.70;79.90
69595;DHT22;56800;52.142;5.364;2022-10-16T07:36:05;13.70;79.70
69595;DHT22;56800;52.142;5.364;2022-10-16T07:38:32;13.80;79.70
69595;DHT22;56800;52.142;5.364;2022-10-16T07:41:10;13.80;79.50
69595;DHT22;56800;52.142;5.364;2022-10-16T07:43:37;13.80;79.30
69595;DHT22;56800;52.142;5.364;2022-10-16T07:46:04;13.80;79.20
69595;DHT22;56800;52.142;5.364;2022-10-16T07:48:34;13.80;79.10
69595;DHT22;56800;52.142;5.364;2022-10-16T07:51:03;13.80;79.10
69595;DHT22;56800;52.142;5.364;2022-10-16T07:53:30;13.90;79.10
69595;DHT22;56800;52.142;5.364;2022-10-16T07:56:01;13.90;79.00
69595;DHT22;56800;52.142;5.364;2022-10-16T07:58:28;13.90;79.00
69595;DHT22;56800;52.142;5.364;2022-10-16T08:00:56;13.90;79.10
69595;DHT22;56800;52.142;5.364;2022-10-16T08:03:24;13.90;79.10
69595;DHT22;56800;52.142;5.364;2022-10-16T08:05:51;13.90;79.40
69595;DHT22;56800;52.142;5.364;2022-10-16T08:08:18;14.00;79.50
69595;DHT22;56800;52.142;5.364;2022-10-16T08:10:45;14.10;79.50
69595;DHT22;56800;52.142;5.364;2022-10-16T08:13:12;14.10;79.40
69595;DHT22;56800;52.142;5.364;2022-10-16T08:15:42;14.20;79.30
69595;DHT22;56800;52.142;5.364;2022-10-16T08:18:09;14.20;79.20
69595;DHT22;56800;52.142;5.364;2022-10-16T08:20:37;14.20;79.60
69595;DHT22;56800;52.142;5.364;2022-10-16T08:23:04;14.50;81.40
69595;DHT22;56800;52.142;5.364;2022-10-16T08:25:30;15.00;80.00
69595;DHT22;56800;52.142;5.364;2022-10-16T08:27:57;15.20;77.80
69595;DHT22;56800;52.142;5.364;2022-10-16T08:30:24;15.20;77.20
69595;DHT22;56800;52.142;5.364;2022-10-16T08:32:50;15.20;77.00
69595;DHT22;56800;52.142;5.364;2022-10-16T08:35:17;15.10;76.90
69595;DHT22;56800;52.142;5.364;2022-10-16T08:37:44;15.00;76.80
69595;DHT22;56800;52.142;5.364;2022-10-16T08:40:24;15.00;76.90
69595;DHT22;56800;52.142;5.364;2022-10-16T08:45:46;14.90;77.20
69595;DHT22;56800;52.142;5.364;2022-10-16T08:48:21;15.00;77.60
69595;DHT22;56800;52.142;5.364;2022-10-16T08:50:51;15.10;77.30
69595;DHT22;56800;52.142;5.364;2022-10-16T08:53:26;15.30;77.30
69595;DHT22;56800;52.142;5.364;2022-10-16T08:55:54;15.40;76.40
69595;DHT22;56800;52.142;5.364;2022-10-16T08:58:27;15.50;76.90
69595;DHT22;56800;52.142;5.364;2022-10-16T09:00:57;15.50;76.00
69595;DHT22;56800;52.142;5.364;2022-10-16T09:06:16;15.70;77.20
69595;DHT22;56800;52.142;5.364;2022-10-16T09:09:16;15.90;75.80
69595;DHT22;56800;52.142;5.364;2022-10-16T09:15:25;16.40;76.10
69595;DHT22;56800;52.142;5.364;2022-10-16T09:21:06;18.30;73.40
69595;DHT22;56800;52.142;5.364;2022-10-16T09:23:36;20.00;70.40
69595;DHT22;56800;52.142;5.364;2022-10-16T09:26:05;21.20;67.50
69595;DHT22;56800;52.142;5.364;2022-10-16T09:28:31;22.30;65.50
69595;DHT22;56800;52.142;5.364;2022-10-16T09:30:58;23.30;62.60
69595;DHT22;56800;52.142;5.364;2022-10-16T09:33:35;24.10;60.40
69595;DHT22;56800;52.142;5.364;2022-10-16T09:36:03;24.80;58.60
69595;DHT22;56800;52.142;5.364;2022-10-16T09:38:34;25.10;55.90
69595;DHT22;56800;52.142;5.364;2022-10-16T09:41:12;25.40;55.10
69595;DHT22;56800;52.142;5.364;2022-10-16T09:43:53;25.30;53.70
69595;DHT22;56800;52.142;5.364;2022-10-16T09:46:30;25.00;53.60
69595;DHT22;56800;52.142;5.364;2022-10-16T09:49:05;24.60;53.20
69595;DHT22;56800;52.142;5.364;2022-10-16T09:51:34;24.20;54.50
69595;DHT22;56800;52.142;5.364;2022-10-16T09:56:37;23.70;53.90
69595;DHT22;56800;52.142;5.364;2022-10-16T09:59:26;23.30;54.70
69595;DHT22;56800;52.142;5.364;2022-10-16T10:01:55;22.80;56.30
69595;DHT22;56800;52.142;5.364;2022-10-16T10:04:23;22.40;57.00
69595;DHT22;56800;52.142;5.364;2022-10-16T10:06:55;22.10;57.50
69595;DHT22;56800;52.142;5.364;2022-10-16T10:09:52;21.50;58.10
69595;DHT22;56800;52.142;5.364;2022-10-16T10:14:55;20.50;60.30
69595;DHT22;56800;52.142;5.364;2022-10-16T10:17:23;20.30;60.80
69595;DHT22;56800;52.142;5.364;2022-10-16T10:47:03;19.00;62.70
69595;DHT22;56800;52.142;5.364;2022-10-16T11:08:59;18.40;63.50
69595;DHT22;56800;52.142;5.364;2022-10-16T11:11:33;18.40;63.80
69595;DHT22;56800;52.142;5.364;2022-10-16T11:14:38;18.40;63.50
69595;DHT22;56800;52.142;5.364;2022-10-16T11:19:47;18.60;63.80
69595;DHT22;56800;52.142;5.364;2022-10-16T11:24:58;18.70;63.20
69595;DHT22;56800;52.142;5.364;2022-10-16T11:27:57;18.70;62.90
69595;DHT22;56800;52.142;5.364;2022-10-16T11:30:26;18.80;62.90
69595;DHT22;56800;52.142;5.364;2022-10-16T11:35:38;18.90;62.60
69595;DHT22;56800;52.142;5.364;2022-10-16T11:38:15;18.90;61.90
69595;DHT22;56800;52.142;5.364;2022-10-16T11:40:47;18.90;61.10
69595;DHT22;56800;52.142;5.364;2022-10-16T11:43:25;18.90;61.10
69595;DHT22;56800;52.142;5.364;2022-10-16T11:45:55;19.00;61.10
69595;DHT22;56800;52.142;5.364;2022-10-16T11:48:45;19.10;61.60
69595;DHT22;56800;52.142;5.364;2022-10-16T11:51:29;19.30;61.40
69595;DHT22;56800;52.142;5.364;2022-10-16T11:54:20;19.50;61.10
69595;DHT22;56800;52.142;5.364;2022-10-16T11:56:51;19.60;61.00
69595;DHT22;56800;52.142;5.364;2022-10-16T11:59:52;19.70;60.50
69595;DHT22;56800;52.142;5.364;2022-10-16T12:08:11;20.20;59.40
69595;DHT22;56800;52.142;5.364;2022-10-16T12:10:41;20.30;59.70
69595;DHT22;56800;52.142;5.364;2022-10-16T12:13:34;20.50;58.80
69595;DHT22;56800;52.142;5.364;2022-10-16T12:16:20;20.80;58.00
69595;DHT22;56800;52.142;5.364;2022-10-16T12:18:48;21.00;57.50
69595;DHT22;56800;52.142;5.364;2022-10-16T12:21:16;21.20;56.60
69595;DHT22;56800;52.142;5.364;2022-10-16T12:23:54;21.40;56.50
69595;DHT22;56800;52.142;5.364;2022-10-16T12:26:39;21.50;55.60
69595;DHT22;56800;52.142;5.364;2022-10-16T12:31:56;21.80;54.50
69595;DHT22;56800;52.142;5.364;2022-10-16T12:34:37;22.00;54.80
69595;DHT22;56800;52.142;5.364;2022-10-16T12:37:15;22.00;52.70
69595;DHT22;56800;52.142;5.364;2022-10-16T12:39:47;22.00;52.80
69595;DHT22;56800;52.142;5.364;2022-10-16T12:44:56;21.80;52.60
69595;DHT22;56800;52.142;5.364;2022-10-16T12:49:58;21.60;51.90
69595;DHT22;56800;52.142;5.364;2022-10-16T12:52:35;21.50;52.90
69595;DHT22;56800;52.142;5.364;2022-10-16T12:55:05;21.50;53.00
69595;DHT22;56800;52.142;5.364;2022-10-16T13:00:26;21.30;52.90
69595;DHT22;56800;52.142;5.364;2022-10-16T13:03:23;21.30;53.20
69595;DHT22;56800;52.142;5.364;2022-10-16T13:11:19;21.10;52.40
69595;DHT22;56800;52.142;5.364;2022-10-16T13:14:00;21.10;52.10
69595;DHT22;56800;52.142;5.364;2022-10-16T13:19:13;20.90;52.00
69595;DHT22;56800;52.142;5.364;2022-10-16T13:22:34;20.80;52.20
69595;DHT22;56800;52.142;5.364;2022-10-16T13:30:24;20.70;52.50
69595;DHT22;56800;52.142;5.364;2022-10-16T13:33:03;20.60;52.80
69595;DHT22;56800;52.142;5.364;2022-10-16T13:35:33;20.60;53.90
69595;DHT22;56800;52.142;5.364;2022-10-16T13:38:13;20.50;54.00
69595;DHT22;56800;52.142;5.364;2022-10-16T13:43:26;20.40;54.20
69595;DHT22;56800;52.142;5.364;2022-10-16T13:46:11;20.30;54.20
69595;DHT22;56800;52.142;5.364;2022-10-16T13:48:38;20.20;54.00
69595;DHT22;56800;52.142;5.364;2022-10-16T13:53:39;20.10;54.70
69595;DHT22;56800;52.142;5.364;2022-10-16T13:56:17;20.00;54.80
69595;DHT22;56800;52.142;5.364;2022-10-16T13:58:44;19.90;55.00
69595;DHT22;56800;52.142;5.364;2022-10-16T14:01:19;19.80;55.40
69595;DHT22;56800;52.142;5.364;2022-10-16T14:03:47;19.70;55.60
69595;DHT22;56800;52.142;5.364;2022-10-16T14:06:16;19.70;56.10
69595;DHT22;56800;52.142;5.364;2022-10-16T14:08:47;19.60;56.20
69595;DHT22;56800;52.142;5.364;2022-10-16T14:11:21;19.50;56.70
69595;DHT22;56800;52.142;5.364;2022-10-16T14:13:50;19.50;57.00
69595;DHT22;56800;52.142;5.364;2022-10-16T14:16:31;19.50;57.20
69595;DHT22;56800;52.142;5.364;2022-10-16T14:19:05;19.50;57.20
69595;DHT22;56800;52.142;5.364;2022-10-16T14:21:34;19.40;57.40
69595;DHT22;56800;52.142;5.364;2022-10-16T14:24:21;19.40;57.70
69595;DHT22;56800;52.142;5.364;2022-10-16T14:26:51;19.40;57.50
69595;DHT22;56800;52.142;5.364;2022-10-16T14:29:19;19.30;57.50
69595;DHT22;56800;52.142;5.364;2022-10-16T14:32:00;19.20;57.70
69595;DHT22;56800;52.142;5.364;2022-10-16T14:34:30;19.20;58.00
69595;DHT22;56800;52.142;5.364;2022-10-16T14:37:23;19.20;58.20
69595;DHT22;56800;52.142;5.364;2022-10-16T14:39:54;19.10;58.30
69595;DHT22;56800;52.142;5.364;2022-10-16T14:42:23;19.10;58.20
69595;DHT22;56800;52.142;5.364;2022-10-16T14:44:52;19.10;58.50
69595;DHT22;56800;52.142;5.364;2022-10-16T14:47:22;19.10;58.60
69595;DHT22;56800;52.142;5.364;2022-10-16T14:49:53;19.00;58.50
69595;DHT22;56800;52.142;5.364;2022-10-16T14:52:25;19.00;58.60
69595;DHT22;56800;52.142;5.364;2022-10-16T14:54:52;19.00;58.80
69595;DHT22;56800;52.142;5.364;2022-10-16T14:57:25;19.00;59.00
69595;DHT22;56800;52.142;5.364;2022-10-16T14:59:53;18.90;59.10
69595;DHT22;56800;52.142;5.364;2022-10-16T15:02:35;18.90;59.10
69595;DHT22;56800;52.142;5.364;2022-10-16T15:05:18;18.80;59.20
69595;DHT22;56800;52.142;5.364;2022-10-16T15:07:46;18.80;60.30
69595;DHT22;56800;52.142;5.364;2022-10-16T15:10:13;18.80;60.70
69595;DHT22;56800;52.142;5.364;2022-10-16T15:12:41;18.70;60.90
69595;DHT22;56800;52.142;5.364;2022-10-16T15:17:51;18.60;62.00
69595;DHT22;56800;52.142;5.364;2022-10-16T15:20:27;18.50;62.00
69595;DHT22;56800;52.142;5.364;2022-10-16T15:22:54;18.50;62.30
69595;DHT22;56800;52.142;5.364;2022-10-16T15:25:32;18.40;62.50
69595;DHT22;56800;52.142;5.364;2022-10-16T15:28:00;18.30;62.80
69595;DHT22;56800;52.142;5.364;2022-10-16T15:30:28;18.20;63.00
69595;DHT22;56800;52.142;5.364;2022-10-16T15:32:54;18.10;63.10
69595;DHT22;56800;52.142;5.364;2022-10-16T15:35:21;18.10;63.30
69595;DHT22;56800;52.142;5.364;2022-10-16T15:37:48;18.10;63.40
69595;DHT22;56800;52.142;5.364;2022-10-16T15:40:16;18.00;63.50
69595;DHT22;56800;52.142;5.364;2022-10-16T15:42:43;17.90;63.50
69595;DHT22;56800;52.142;5.364;2022-10-16T15:45:11;17.90;63.70
69595;DHT22;56800;52.142;5.364;2022-10-16T15:47:38;17.70;63.80
69595;DHT22;56800;52.142;5.364;2022-10-16T15:50:12;17.60;64.90
69595;DHT22;56800;52.142;5.364;2022-10-16T15:52:40;17.50;64.30
69595;DHT22;56800;52.142;5.364;2022-10-16T15:55:08;17.50;64.50
69595;DHT22;56800;52.142;5.364;2022-10-16T15:57:37;17.40;64.60
69595;DHT22;56800;52.142;5.364;2022-10-16T16:00:15;17.30;64.90
69595;DHT22;56800;52.142;5.364;2022-10-16T16:02:43;17.30;65.20
69595;DHT22;56800;52.142;5.364;2022-10-16T16:05:10;17.20;65.20
69595;DHT22;56800;52.142;5.364;2022-10-16T16:07:38;17.20;65.20
69595;DHT22;56800;52.142;5.364;2022-10-16T16:10:08;17.20;65.40
69595;DHT22;56800;52.142;5.364;2022-10-16T16:12:36;17.10;65.60
69595;DHT22;56800;52.142;5.364;2022-10-16T16:15:07;17.10;65.70
69595;DHT22;56800;52.142;5.364;2022-10-16T16:17:35;17.00;66.10
69595;DHT22;56800;52.142;5.364;2022-10-16T16:20:04;16.90;66.30
69595;DHT22;56800;52.142;5.364;2022-10-16T16:22:30;16.80;66.50
69595;DHT22;56800;52.142;5.364;2022-10-16T16:24:57;16.80;66.60
69595;DHT22;56800;52.142;5.364;2022-10-16T16:27:24;16.70;66.70
69595;DHT22;56800;52.142;5.364;2022-10-16T16:29:56;16.70;66.80
69595;DHT22;56800;52.142;5.364;2022-10-16T16:32:23;16.70;67.00
69595;DHT22;56800;52.142;5.364;2022-10-16T16:34:49;16.70;67.20
69595;DHT22;56800;52.142;5.364;2022-10-16T16:37:16;16.70;67.30
69595;DHT22;56800;52.142;5.364;2022-10-16T16:39:43;16.60;67.40
69595;DHT22;56800;52.142;5.364;2022-10-16T16:42:09;16.60;67.40
69595;DHT22;56800;52.142;5.364;2022-10-16T16:44:36;16.60;67.60
69595;DHT22;56800;52.142;5.364;2022-10-16T16:47:04;16.50;67.70
69595;DHT22;56800;52.142;5.364;2022-10-16T16:49:31;16.50;67.40
69595;DHT22;56800;52.142;5.364;2022-10-16T16:51:58;16.50;67.40
69595;DHT22;56800;52.142;5.364;2022-10-16T16:54:24;16.40;67.50
69595;DHT22;56800;52.142;5.364;2022-10-16T16:56:51;16.40;67.50
69595;DHT22;56800;52.142;5.364;2022-10-16T16:59:19;16.40;67.60
69595;DHT22;56800;52.142;5.364;2022-10-16T17:01:46;16.30;67.80
69595;DHT22;56800;52.142;5.364;2022-10-16T17:04:17;16.30;67.70
69595;DHT22;56800;52.142;5.364;2022-10-16T17:06:45;16.20;67.70
69595;DHT22;56800;52.142;5.364;2022-10-16T17:09:12;16.20;67.90
69595;DHT22;56800;52.142;5.364;2022-10-16T17:11:41;16.10;68.10
69595;DHT22;56800;52.142;5.364;2022-10-16T17:14:11;16.10;68.30
69595;DHT22;56800;52.142;5.364;2022-10-16T17:16:38;16.00;68.50
69595;DHT22;56800;52.142;5.364;2022-10-16T17:19:07;16.10;68.60
69595;DHT22;56800;52.142;5.364;2022-10-16T17:21:35;16.00;68.80
69595;DHT22;56800;52.142;5.364;2022-10-16T17:24:02;15.90;68.90
69595;DHT22;56800;52.142;5.364;2022-10-16T17:26:29;15.90;68.90
69595;DHT22;56800;52.142;5.364;2022-10-16T17:28:59;15.90;69.00
69595;DHT22;56800;52.142;5.364;2022-10-16T17:31:29;15.90;69.00
69595;DHT22;56800;52.142;5.364;2022-10-16T17:33:57;15.90;69.10
69595;DHT22;56800;52.142;5.364;2022-10-16T17:36:25;15.90;69.10
69595;DHT22;56800;52.142;5.364;2022-10-16T17:38:56;15.90;69.10
69595;DHT22;56800;52.142;5.364;2022-10-16T17:41:25;15.80;69.10
69595;DHT22;56800;52.142;5.364;2022-10-16T17:43:52;15.80;69.30
69595;DHT22;56800;52.142;5.364;2022-10-16T17:46:20;15.80;69.40
69595;DHT22;56800;52.142;5.364;2022-10-16T17:48:49;15.70;69.50
69595;DHT22;56800;52.142;5.364;2022-10-16T17:51:18;15.70;69.50
69595;DHT22;56800;52.142;5.364;2022-10-16T17:53:49;15.70;69.60
69595;DHT22;56800;52.142;5.364;2022-10-16T17:56:16;15.70;69.80